createdAt,value
2024-01-26T00:00:29.022Z,4.50
2024-01-26T00:02:57.636Z,4.20
2024-01-26T00:05:25.759Z,4.90
2024-01-26T00:07:54.270Z,4.15
2024-01-26T00:10:24.224Z,4.65
2024-01-26T00:12:52.110Z,4.13
2024-01-26T00:15:20.433Z,4.20
2024-01-26T00:17:48.358Z,4.10
2024-01-26T00:20:16.549Z,4.80
2024-01-26T00:22:44.831Z,4.22
2024-01-26T00:25:12.924Z,4.57
2024-01-26T00:27:42.193Z,4.45
2024-01-26T00:30:10.891Z,4.45
2024-01-26T00:32:39.379Z,5.30
2024-01-26T00:35:08.426Z,4.75
2024-01-26T00:37:36.888Z,4.20
2024-01-26T00:40:05.570Z,4.25
2024-01-26T00:42:33.741Z,4.97
2024-01-26T00:45:02.937Z,5.05
2024-01-26T00:47:29.794Z,4.60
2024-01-26T00:49:57.698Z,4.80
2024-01-26T00:52:26.323Z,4.47
2024-01-26T00:54:54.152Z,4.57
2024-01-26T00:57:22.387Z,4.90
2024-01-26T00:59:50.553Z,5.25
2024-01-26T01:02:19.783Z,5.25
2024-01-26T01:04:47.599Z,4.65
2024-01-26T01:07:15.394Z,5.55
2024-01-26T01:09:43.220Z,5.53
2024-01-26T01:12:11.106Z,6.00
2024-01-26T01:14:40.598Z,5.95
2024-01-26T01:17:09.975Z,6.40
2024-01-26T01:19:39.402Z,5.80
2024-01-26T01:22:07.238Z,5.22
2024-01-26T01:24:35.022Z,6.28
2024-01-26T01:27:02.878Z,6.13
2024-01-26T01:29:30.740Z,6.57
2024-01-26T01:31:58.518Z,5.70
2024-01-26T01:34:26.832Z,6.40
2024-01-26T01:36:56.213Z,6.40
2024-01-26T01:39:24.064Z,7.18
2024-01-26T01:41:51.930Z,7.30
2024-01-26T01:44:19.788Z,6.25
2024-01-26T01:46:48.205Z,7.15
2024-01-26T01:49:16.337Z,6.85
2024-01-26T01:51:48.265Z,6.57
2024-01-26T01:54:18.106Z,7.07
2024-01-26T01:56:46.728Z,7.07
2024-01-26T01:59:14.672Z,6.57
2024-01-26T02:01:42.585Z,5.93
2024-01-26T02:04:10.640Z,5.93
2024-01-26T02:06:38.892Z,6.40
2024-01-26T02:09:07.037Z,6.55
2024-01-26T02:11:36.178Z,6.07
2024-01-26T02:14:04.557Z,5.13
2024-01-26T02:16:32.967Z,5.43
2024-01-26T02:19:00.920Z,5.55
2024-01-26T02:21:29.434Z,4.57
2024-01-26T02:23:58.644Z,5.60
2024-01-26T02:26:26.519Z,5.82
2024-01-26T02:28:54.714Z,5.20
2024-01-26T02:31:22.702Z,5.65
2024-01-26T02:33:50.678Z,6.05
2024-01-26T02:36:18.564Z,5.80
2024-01-26T02:38:46.529Z,5.45
2024-01-26T02:41:15.829Z,6.13
2024-01-26T02:43:43.623Z,6.35
2024-01-26T02:46:12.326Z,6.53
2024-01-26T02:48:41.279Z,7.00
2024-01-26T02:51:09.175Z,7.05
2024-01-26T02:53:40.563Z,8.63
2024-01-26T02:56:08.823Z,8.48
2024-01-26T02:58:38.641Z,8.82
2024-01-26T03:01:06.716Z,8.48
2024-01-26T03:03:34.551Z,7.90
2024-01-26T03:06:02.919Z,8.02
2024-01-26T03:08:32.388Z,9.10
2024-01-26T03:11:00.745Z,11.35
2024-01-26T03:13:28.591Z,10.90
2024-01-26T03:15:57.772Z,9.65
2024-01-26T03:18:26.125Z,9.52
2024-01-26T03:20:54.453Z,9.50
2024-01-26T03:23:22.261Z,9.80
2024-01-26T03:25:50.133Z,10.38
2024-01-26T03:28:17.885Z,10.18
2024-01-26T03:30:48.589Z,10.32
2024-01-26T03:33:19.009Z,8.65
2024-01-26T03:35:48.064Z,10.43
2024-01-26T03:38:15.949Z,8.20
2024-01-26T03:40:43.738Z,8.60
2024-01-26T03:43:11.586Z,9.00
2024-01-26T03:45:39.581Z,8.30
2024-01-26T03:48:08.625Z,8.93
2024-01-26T03:50:38.343Z,8.32
2024-01-26T03:53:06.218Z,8.07
2024-01-26T03:55:33.978Z,9.15
2024-01-26T03:58:02.126Z,8.82
2024-01-26T04:00:30.443Z,11.27
2024-01-26T04:02:58.611Z,9.73
2024-01-26T04:05:26.517Z,10.35
2024-01-26T04:07:55.604Z,9.55
2024-01-26T04:10:23.406Z,9.25
2024-01-26T04:12:51.764Z,8.13
2024-01-26T04:15:19.581Z,8.90
2024-01-26T04:17:47.514Z,10.02
2024-01-26T04:20:15.689Z,9.45
2024-01-26T04:22:44.560Z,8.60
2024-01-26T04:25:13.797Z,8.65
2024-01-26T04:27:41.706Z,9.20
2024-01-26T04:30:11.141Z,8.07
2024-01-26T04:32:39.407Z,10.02
2024-01-26T04:35:08.341Z,9.95
2024-01-26T04:37:36.255Z,10.23
2024-01-26T04:40:04.347Z,11.07
2024-01-26T04:42:33.517Z,11.35
2024-01-26T04:45:01.280Z,11.45
2024-01-26T04:47:29.693Z,11.60
2024-01-26T04:49:58.062Z,12.77
2024-01-26T04:52:27.732Z,12.82
2024-01-26T04:54:55.584Z,11.68
2024-01-26T04:57:23.704Z,12.55
2024-01-26T04:59:53.621Z,12.43
2024-01-26T05:02:21.505Z,11.75
2024-01-26T05:04:49.267Z,12.13
2024-01-26T05:07:17.397Z,12.73
2024-01-26T05:09:48.554Z,11.60
2024-01-26T05:12:17.418Z,11.02
2024-01-26T05:14:46.524Z,11.88
2024-01-26T05:17:15.760Z,11.30
2024-01-26T05:19:43.690Z,11.30
2024-01-26T05:22:11.542Z,10.80
2024-01-26T05:24:39.817Z,11.48
2024-01-26T05:27:08.674Z,11.10
2024-01-26T05:29:37.145Z,10.88
2024-01-26T05:32:05.676Z,10.77
2024-01-26T05:34:35.150Z,10.60
2024-01-26T05:37:03.071Z,9.77
2024-01-26T05:39:30.901Z,10.05
2024-01-26T05:41:58.718Z,11.30
2024-01-26T05:44:26.744Z,10.25
2024-01-26T05:46:54.961Z,10.93
2024-01-26T05:49:24.968Z,10.13
2024-01-26T05:51:54.366Z,10.35
2024-01-26T05:54:22.142Z,10.25
2024-01-26T05:56:49.993Z,10.85
2024-01-26T05:59:17.868Z,9.10
2024-01-26T06:01:45.924Z,9.07
2024-01-26T06:04:13.895Z,9.25
2024-01-26T06:06:41.862Z,8.77
2024-01-26T06:09:12.544Z,9.98
2024-01-26T06:11:43.573Z,9.80
2024-01-26T06:14:11.557Z,9.18
2024-01-26T06:16:39.508Z,10.07
2024-01-26T06:19:07.571Z,10.25
2024-01-26T06:21:35.604Z,10.13
2024-01-26T06:24:03.910Z,11.13
2024-01-26T06:26:33.270Z,9.85
2024-01-26T06:29:01.375Z,9.10
2024-01-26T06:31:29.388Z,9.13
2024-01-26T06:33:57.885Z,8.60
2024-01-26T06:36:25.851Z,9.60
2024-01-26T06:38:53.715Z,9.23
2024-01-26T06:41:22.042Z,8.32
2024-01-26T06:43:52.972Z,9.32
2024-01-26T06:46:24.143Z,8.73
2024-01-26T06:48:52.766Z,9.00
2024-01-26T06:51:20.977Z,8.02
2024-01-26T06:53:49.513Z,7.97
2024-01-26T06:56:17.446Z,7.72
2024-01-26T06:58:46.793Z,8.10
2024-01-26T07:01:16.253Z,7.63
2024-01-26T07:03:44.247Z,7.95
2024-01-26T07:06:12.797Z,7.00
2024-01-26T07:08:42.739Z,6.93
2024-01-26T07:11:12.645Z,7.35
2024-01-26T07:13:40.459Z,7.35
2024-01-26T07:16:09.734Z,7.70
2024-01-26T07:18:39.178Z,7.10
2024-01-26T07:21:09.388Z,6.82
2024-01-26T07:23:41.172Z,7.25
2024-01-26T07:26:09.184Z,7.13
2024-01-26T07:28:37.631Z,7.50
2024-01-26T07:31:05.738Z,6.93
2024-01-26T07:33:33.918Z,6.20
2024-01-26T07:36:03.705Z,6.95
2024-01-26T07:38:31.663Z,6.22
2024-01-26T07:40:59.727Z,7.85
2024-01-26T07:43:28.001Z,8.32
2024-01-26T07:45:55.793Z,8.88
2024-01-26T07:48:26.105Z,7.90
2024-01-26T07:50:54.130Z,7.50
2024-01-26T07:53:23.490Z,7.50
2024-01-26T07:55:51.835Z,7.05
2024-01-26T07:58:20.365Z,6.47
2024-01-26T08:00:49.768Z,7.68
2024-01-26T08:03:17.777Z,8.30
2024-01-26T08:05:46.353Z,8.30
2024-01-26T08:08:14.465Z,6.90
2024-01-26T08:10:44.209Z,6.57
2024-01-26T08:13:13.289Z,7.22
2024-01-26T08:15:41.724Z,6.35
2024-01-26T08:18:10.003Z,7.20
2024-01-26T08:20:38.509Z,7.55
2024-01-26T08:23:06.884Z,6.97
2024-01-26T08:25:35.184Z,6.03
2024-01-26T08:28:05.614Z,5.60
2024-01-26T08:30:33.477Z,5.93
2024-01-26T08:33:01.385Z,5.32
2024-01-26T08:35:29.644Z,5.30
2024-01-26T08:37:57.761Z,4.63
2024-01-26T08:40:26.981Z,4.70
2024-01-26T08:42:54.791Z,4.78
2024-01-26T08:45:24.062Z,4.55
2024-01-26T08:47:52.657Z,4.40
2024-01-26T08:50:20.755Z,3.65
2024-01-26T08:52:48.908Z,4.25
2024-01-26T08:55:17.247Z,3.90
2024-01-26T08:57:45.381Z,3.72
2024-01-26T09:00:16.142Z,4.07
2024-01-26T09:02:45.370Z,3.63
2024-01-26T09:05:13.647Z,3.78
2024-01-26T09:07:41.423Z,3.65
2024-01-26T09:10:09.894Z,3.70
2024-01-26T09:12:37.698Z,3.95
2024-01-26T09:15:06.112Z,3.17
2024-01-26T09:17:34.153Z,3.55
2024-01-26T09:20:04.124Z,3.50
2024-01-26T09:22:33.908Z,3.17
2024-01-26T09:25:01.801Z,3.47
2024-01-26T09:27:30.173Z,3.10
2024-01-26T09:29:58.573Z,2.85
2024-01-26T09:32:26.440Z,3.05
2024-01-26T09:34:54.489Z,3.47
2024-01-26T09:37:24.183Z,3.83
2024-01-26T09:39:52.039Z,3.78
2024-01-26T09:42:20.218Z,3.22
2024-01-26T09:44:48.812Z,2.90
2024-01-26T09:47:16.949Z,2.72
2024-01-26T09:49:49.894Z,2.75
2024-01-26T09:52:19.413Z,3.42
2024-01-26T09:54:49.671Z,3.00
2024-01-26T09:57:19.220Z,2.90
2024-01-26T09:59:51.309Z,2.72
2024-01-26T10:02:19.449Z,2.58
2024-01-26T10:04:47.264Z,2.40
2024-01-26T10:07:15.269Z,2.20
2024-01-26T10:09:43.551Z,2.42
2024-01-26T10:12:13.125Z,2.53
2024-01-26T10:14:41.131Z,2.75
2024-01-26T10:17:09.159Z,2.50
2024-01-26T10:19:37.997Z,2.83
2024-01-26T10:22:07.426Z,2.60
2024-01-26T10:24:35.395Z,3.20
2024-01-26T10:27:03.378Z,3.42
2024-01-26T10:29:35.761Z,3.38
2024-01-26T10:32:05.970Z,3.42
2024-01-26T10:34:36.633Z,3.22
2024-01-26T10:37:10.285Z,4.20
2024-01-26T10:39:40.420Z,4.00
2024-01-26T10:42:10.948Z,4.47
2024-01-26T10:44:41.163Z,4.70
2024-01-26T10:47:10.436Z,4.28
2024-01-26T10:49:38.920Z,4.55
2024-01-26T10:52:08.520Z,4.65
2024-01-26T10:54:37.637Z,4.40
2024-01-26T10:57:05.780Z,5.68
2024-01-26T10:59:35.182Z,5.28
2024-01-26T11:02:04.816Z,5.35
2024-01-26T11:04:33.127Z,5.63
2024-01-26T11:07:02.209Z,6.50
2024-01-26T11:09:34.198Z,5.85
2024-01-26T11:12:03.582Z,5.97
2024-01-26T11:14:33.977Z,6.43
2024-01-26T11:17:11.716Z,6.20
2024-01-26T11:19:40.494Z,6.63
2024-01-26T11:22:10.067Z,6.95
2024-01-26T11:24:38.021Z,6.63
2024-01-26T11:27:06.927Z,6.93
2024-01-26T11:29:35.989Z,6.00
2024-01-26T11:32:15.478Z,5.82
2024-01-26T11:34:45.158Z,5.22
2024-01-26T11:37:14.572Z,5.30
2024-01-26T11:39:43.630Z,5.22
2024-01-26T11:42:13.420Z,2.05
2024-01-26T11:44:42.204Z,1.50
2024-01-26T11:47:11.054Z,0.90
2024-01-26T11:49:40.609Z,0.80
2024-01-26T11:52:10.352Z,1.00
2024-01-26T11:54:39.101Z,0.60
2024-01-26T11:57:08.165Z,0.63
2024-01-26T11:59:36.576Z,0.47
2024-01-26T12:02:04.895Z,0.45
2024-01-26T12:04:33.362Z,0.60
2024-01-26T12:07:01.236Z,0.60
2024-01-26T12:09:31.422Z,0.50
2024-01-26T12:11:59.628Z,0.45
2024-01-26T12:14:28.199Z,0.60
2024-01-26T12:16:56.590Z,0.70
2024-01-26T12:19:24.393Z,0.80
2024-01-26T12:21:52.980Z,0.90
2024-01-26T12:24:21.168Z,0.73
2024-01-26T12:26:51.851Z,0.90
2024-01-26T12:29:22.038Z,0.80
2024-01-26T12:31:51.316Z,0.80
2024-01-26T12:34:19.738Z,0.98
2024-01-26T12:36:47.670Z,0.85
2024-01-26T12:39:15.669Z,0.80
2024-01-26T12:41:43.570Z,0.90
2024-01-26T12:44:12.837Z,0.80
2024-01-26T12:46:42.399Z,0.95
2024-01-26T12:49:12.083Z,1.10
2024-01-26T12:51:40.144Z,1.25
2024-01-26T12:54:08.346Z,1.27
2024-01-26T12:56:36.248Z,1.50
2024-01-26T12:59:04.056Z,1.20
2024-01-26T13:01:33.674Z,1.02
2024-01-26T13:04:01.683Z,1.00
2024-01-26T13:06:29.974Z,1.30
2024-01-26T13:08:58.052Z,1.27
2024-01-26T13:11:26.222Z,1.27
2024-01-26T13:13:54.023Z,1.10
2024-01-26T13:16:22.415Z,1.30
2024-01-26T13:18:51.845Z,1.52
2024-01-26T13:21:21.193Z,1.58
2024-01-26T13:23:49.606Z,1.55
2024-01-26T13:26:18.029Z,1.65
2024-01-26T13:28:46.501Z,1.30
2024-01-26T13:31:14.427Z,1.48
2024-01-26T13:33:44.992Z,1.52
2024-01-26T13:36:14.737Z,1.73
2024-01-26T13:38:42.886Z,1.25
2024-01-26T13:41:10.724Z,1.25
2024-01-26T13:43:38.569Z,1.42
2024-01-26T13:46:06.415Z,1.58
2024-01-26T13:48:35.695Z,1.50
2024-01-26T13:51:03.735Z,1.98
2024-01-26T13:53:33.448Z,1.50
2024-01-26T13:56:01.486Z,1.45
2024-01-26T13:58:30.284Z,1.65
2024-01-26T14:00:58.227Z,1.75
2024-01-26T14:03:26.983Z,1.40
2024-01-26T14:05:55.317Z,1.55
2024-01-26T14:08:23.306Z,1.70
2024-01-26T14:10:52.519Z,1.52
2024-01-26T14:13:20.300Z,1.55
2024-01-26T14:15:48.371Z,2.28
2024-01-26T14:18:16.303Z,1.70
2024-01-26T14:20:44.211Z,1.80
2024-01-26T14:23:13.364Z,1.83
2024-01-26T14:25:41.549Z,1.60
2024-01-26T14:28:10.845Z,1.60
2024-01-26T14:30:38.663Z,1.65
2024-01-26T14:33:08.574Z,1.67
2024-01-26T14:35:36.516Z,1.63
2024-01-26T14:38:04.560Z,1.38
2024-01-26T14:40:32.697Z,1.90
2024-01-26T14:43:01.316Z,1.23
2024-01-26T14:45:31.392Z,1.20
2024-01-26T14:47:59.416Z,1.60
2024-01-26T14:50:27.312Z,2.00
2024-01-26T14:52:56.028Z,1.40
2024-01-26T14:55:23.861Z,1.05
2024-01-26T14:57:53.563Z,2.55
2024-01-26T15:00:22.671Z,1.40
2024-01-26T15:02:52.347Z,1.20
2024-01-26T15:05:23.654Z,1.27
2024-01-26T15:07:53.077Z,1.35
2024-01-26T15:10:23.300Z,1.25
2024-01-26T15:12:51.547Z,1.00
2024-01-26T15:15:20.328Z,1.23
2024-01-26T15:17:50.187Z,1.13
2024-01-26T15:20:20.468Z,1.10
2024-01-26T15:22:51.576Z,1.70
2024-01-26T15:25:19.645Z,1.65
2024-01-26T15:27:47.633Z,1.38
2024-01-26T15:30:18.052Z,1.70
2024-01-26T15:32:46.578Z,1.10
2024-01-26T15:35:15.016Z,1.48
2024-01-26T15:37:44.415Z,1.70
2024-01-26T15:40:15.645Z,1.70
2024-01-26T15:42:43.506Z,1.48
2024-01-26T15:45:13.115Z,1.40
2024-01-26T15:47:41.154Z,1.80
2024-01-26T15:50:09.691Z,1.88
2024-01-26T15:52:45.310Z,1.23
2024-01-26T15:55:16.326Z,1.45
2024-01-26T15:57:44.612Z,1.80
2024-01-26T16:00:15.109Z,1.40
2024-01-26T16:02:43.074Z,1.27
2024-01-26T16:05:12.392Z,1.90
2024-01-26T16:07:40.333Z,1.70
2024-01-26T16:10:10.449Z,1.38
2024-01-26T16:12:40.684Z,1.70
2024-01-26T16:15:10.551Z,1.60
2024-01-26T16:17:38.750Z,1.30
2024-01-26T16:20:07.815Z,1.35
2024-01-26T16:22:35.649Z,1.40
2024-01-26T16:25:03.510Z,1.45
2024-01-26T16:27:31.380Z,1.45
2024-01-26T16:30:00.707Z,1.50
2024-01-26T16:32:28.641Z,1.80
2024-01-26T16:34:57.450Z,1.83
2024-01-26T16:37:25.360Z,1.20
2024-01-26T16:39:53.240Z,1.85
2024-01-26T16:42:21.556Z,1.50
2024-01-26T16:44:49.412Z,1.30
2024-01-26T16:47:18.885Z,1.60
2024-01-26T16:49:48.662Z,1.20
2024-01-26T16:52:16.564Z,1.30
2024-01-26T16:54:44.708Z,1.13
2024-01-26T16:57:12.532Z,1.60
2024-01-26T16:59:40.461Z,1.67
2024-01-26T17:02:08.752Z,1.30
2024-01-26T17:04:37.954Z,1.50
2024-01-26T17:07:06.340Z,1.88
2024-01-26T17:09:34.214Z,3.30
2024-01-26T17:12:02.121Z,1.50
2024-01-26T17:14:30.644Z,1.45
2024-01-26T17:16:59.035Z,1.80
2024-01-26T17:19:26.854Z,1.98
2024-01-26T17:21:56.252Z,1.27
2024-01-26T17:24:24.440Z,1.70
2024-01-26T17:26:52.306Z,1.63
2024-01-26T17:29:20.614Z,1.95
2024-01-26T17:31:49.939Z,2.03
2024-01-26T17:34:17.796Z,1.52
2024-01-26T17:36:46.396Z,1.95
2024-01-26T17:39:15.772Z,1.77
2024-01-26T17:41:43.828Z,1.83
2024-01-26T17:44:12.272Z,1.88
2024-01-26T17:46:47.814Z,2.03
2024-01-26T17:49:17.994Z,1.40
2024-01-26T17:51:46.363Z,1.50
2024-01-26T17:54:15.624Z,2.33
2024-01-26T17:56:43.585Z,2.65
2024-01-26T17:59:12.348Z,2.45
2024-01-26T18:01:40.796Z,2.08
2024-01-26T18:04:09.283Z,2.38
2024-01-26T18:06:37.671Z,1.92
2024-01-26T18:09:05.839Z,1.90
2024-01-26T18:11:35.426Z,2.05
2024-01-26T18:14:03.330Z,2.17
2024-01-26T18:16:31.100Z,2.22
2024-01-26T18:18:59.009Z,2.00
2024-01-26T18:21:27.827Z,2.30
2024-01-26T18:23:55.752Z,2.05
2024-01-26T18:26:23.564Z,2.15
2024-01-26T18:28:52.770Z,1.98
2024-01-26T18:31:31.407Z,2.42
2024-01-26T18:33:59.617Z,2.50
2024-01-26T18:36:29.068Z,2.03
2024-01-26T18:38:57.229Z,3.63
2024-01-26T18:41:25.613Z,2.97
2024-01-26T18:43:57.557Z,2.00
2024-01-26T18:46:27.076Z,2.42
2024-01-26T18:48:56.185Z,2.80
2024-01-26T18:51:24.686Z,3.28
2024-01-26T18:53:53.533Z,2.22
2024-01-26T18:56:21.773Z,2.42
2024-01-26T18:58:49.967Z,2.20
2024-01-26T19:01:20.414Z,1.67
2024-01-26T19:03:48.997Z,2.85
2024-01-26T19:06:17.524Z,2.22
2024-01-26T19:08:45.522Z,2.05
2024-01-26T19:11:14.542Z,2.65
2024-01-26T19:13:43.964Z,1.55
2024-01-26T19:16:12.747Z,2.05
2024-01-26T19:18:42.322Z,1.92
2024-01-26T19:21:10.624Z,2.28
2024-01-26T19:23:38.685Z,2.30
2024-01-26T19:26:07.572Z,2.00
2024-01-26T19:28:35.512Z,2.00
2024-01-26T19:31:03.386Z,2.28
2024-01-26T19:33:31.313Z,2.40
2024-01-26T19:36:00.641Z,1.92
2024-01-26T19:38:28.458Z,2.38
2024-01-26T19:40:56.267Z,2.28
2024-01-26T19:43:24.216Z,2.50
2024-01-26T19:45:52.030Z,2.35
2024-01-26T19:48:19.983Z,2.20
2024-01-26T19:50:47.955Z,2.58
2024-01-26T19:53:20.500Z,2.78
2024-01-26T19:55:50.075Z,2.55
2024-01-26T19:58:18.018Z,2.60
2024-01-26T20:00:45.849Z,2.17
2024-01-26T20:03:13.860Z,2.58
2024-01-26T20:05:42.158Z,2.72
2024-01-26T20:08:10.214Z,2.60
2024-01-26T20:10:40.430Z,2.50
2024-01-26T20:13:08.437Z,2.95
2024-01-26T20:15:36.722Z,2.83
2024-01-26T20:18:05.249Z,2.58
2024-01-26T20:20:33.497Z,2.90
2024-01-26T20:23:01.954Z,2.70
2024-01-26T20:25:30.009Z,2.65
2024-01-26T20:27:59.652Z,3.17
2024-01-26T20:30:30.600Z,2.00
2024-01-26T20:32:59.549Z,2.58
2024-01-26T20:35:27.755Z,2.53
2024-01-26T20:37:55.765Z,2.05
2024-01-26T20:40:25.481Z,2.70
2024-01-26T20:43:01.553Z,1.92
2024-01-26T20:45:31.498Z,2.22
2024-01-26T20:48:00.328Z,2.67
2024-01-26T20:50:29.697Z,2.22
2024-01-26T20:52:57.913Z,2.42
2024-01-26T20:55:25.744Z,2.90
2024-01-26T20:57:53.988Z,2.35
2024-01-26T21:00:23.346Z,2.38
2024-01-26T21:02:53.108Z,1.60
2024-01-26T21:05:21.338Z,2.30
2024-01-26T21:07:57.434Z,1.98
2024-01-26T21:10:26.571Z,2.67
2024-01-26T21:12:55.416Z,2.13
2024-01-26T21:15:23.432Z,2.03
2024-01-26T21:17:53.478Z,2.95
2024-01-26T21:20:22.352Z,2.28
2024-01-26T21:22:52.804Z,2.22
2024-01-26T21:25:21.935Z,2.80
2024-01-26T21:27:50.756Z,3.05
2024-01-26T21:30:19.005Z,3.10
2024-01-26T21:32:47.064Z,2.33
2024-01-26T21:35:16.358Z,3.17
2024-01-26T21:37:45.313Z,2.60
2024-01-26T21:40:15.064Z,2.30
2024-01-26T21:42:43.802Z,2.90
2024-01-26T21:45:12.827Z,2.63
2024-01-26T21:47:42.444Z,2.88
2024-01-26T21:50:12.668Z,2.97
2024-01-26T21:52:43.083Z,2.40
2024-01-26T21:55:12.047Z,2.25
2024-01-26T21:57:41.340Z,2.90
2024-01-26T22:00:10.479Z,2.55
2024-01-26T22:02:38.534Z,2.58
2024-01-26T22:05:09.495Z,2.30
2024-01-26T22:07:37.649Z,3.13
2024-01-26T22:10:08.863Z,2.10
2024-01-26T22:12:36.908Z,3.20
2024-01-26T22:15:05.778Z,2.55
2024-01-26T22:17:34.677Z,2.72
2024-01-26T22:20:02.856Z,3.05
2024-01-26T22:22:32.260Z,2.75
2024-01-26T22:25:00.850Z,3.50
2024-01-26T22:27:30.677Z,2.17
2024-01-26T22:29:58.798Z,3.13
2024-01-26T22:32:26.627Z,2.88
2024-01-26T22:34:54.480Z,2.75
2024-01-26T22:37:23.227Z,3.80
2024-01-26T22:39:52.121Z,2.63
2024-01-26T22:42:19.965Z,3.42
2024-01-26T22:44:49.477Z,2.83
2024-01-26T22:47:17.551Z,2.75
2024-01-26T22:49:45.460Z,3.47
2024-01-26T22:52:13.762Z,4.25
2024-01-26T22:54:41.627Z,3.47
2024-01-26T22:57:10.501Z,3.05
2024-01-26T22:59:38.360Z,2.85
2024-01-26T23:02:07.866Z,2.70
2024-01-26T23:04:35.859Z,3.00
2024-01-26T23:07:04.199Z,3.03
2024-01-26T23:09:32.183Z,3.10
2024-01-26T23:11:59.995Z,2.97
2024-01-26T23:14:28.205Z,2.90
2024-01-26T23:16:56.037Z,3.60
2024-01-26T23:19:31.080Z,3.13
2024-01-26T23:22:00.495Z,3.17
2024-01-26T23:24:28.683Z,2.60
2024-01-26T23:26:57.228Z,3.30
2024-01-26T23:29:25.170Z,2.80
2024-01-26T23:31:53.383Z,2.45
2024-01-26T23:34:21.531Z,2.53
2024-01-26T23:36:51.368Z,2.90
2024-01-26T23:39:19.240Z,3.05
2024-01-26T23:41:48.574Z,2.30
2024-01-26T23:44:16.586Z,2.30
2024-01-26T23:46:46.022Z,2.97
2024-01-26T23:49:14.871Z,2.67
2024-01-26T23:51:43.273Z,3.85
2024-01-26T23:54:14.355Z,3.20
2024-01-26T23:56:42.248Z,2.60
2024-01-26T23:59:10.058Z,3.25
